Fruitvale, Canada
Current Conditions -  °F | °C
As of 9:00 PM on Thursday 23 Oct 2014 (Local Time) from CYCG Reporting Station
Few Clouds Few Clouds  
Wind Chill: 45°   Ceiling: Unl
Heat Index: 48°   Visibility: 15mi
Dew Point: 43°   Wind: 7mph
Humidity: 82%   Direction: 170°S
Pressure: 29.84"   Gusts: NA
Location:  49.12°N, 117.55°W
Report Text: CYCG 240400Z 17006KT 15SM FEW080 09/06 A2984 RMK AC2 LAST OBS/NEXT 241300UTC SLP112
Loading
Personal Weather Stations






























Interactive Weather Map
Tropical Storm Tracking
New forecast layout! Learn more

10-Day Weather Forecast

Advertisements
Track Severe Weather on mobile